Ana Sayfa
METAR-TAF:

METAR-TAF

Havaalanları :

Saint-Pierre, Réunion

Enlem: 21-20S, Boylam: 055-29E, yükseklik: 52 m

Güncel hava durumu gözlemi

Rapor saat 05:30 UTC de 29 dakika önce yapıldı.
Rüzgar güneydoğudan 19 kt
Sıcaklık 28°C
Nem 62%
Basınç 1016 hPa
Görüş mesafesi 10 km veya daha fazla

METAR: FMEP 260530Z AUTO 13019KT 9999 NSC 28/20 Q1016

Saat: 09:59 (05:59 UTC)

Tahmin

Rapor saat 05:00 UTC de 59 dakika önce yapıldı.
Ayın 26'si saat 06 UTC'den ayın 26'si saat 15 UTC'ye kadar geçerli Tahmin
Rüzgar doğu/güneydoğudan 25 kt ve 35 kt'a kadar ani rüzgarlar
Görüş mesafesi 10 km veya daha fazla
3000 ft yükseklikte az bulutlu

TAF: FMEP 260500Z 2606/2615 12025G35KT 9999 FEW030

4.000'den fazla havaalanı için hava durumu gözlemleri ve tahminleri (METAR ve TAF raporları).

Kullanılabilir istasyonlar harita üzerinde sarı ve kırmızı noktalarla gösterilir.

İstasyonun adını görmek için fareyi noktanın üzerinde gezdirin.

Sonrasında hava gözlem ve tahminlerini görmek için tıklayın.

Haritayı değiştirmek için: yaklaştırmak için siyah artı işaretli yeşil düğmeye ve uzaklaştırmak için de eksi işaretli düğmeye hızla tıklayın; bitişik haritalar için yeşil okları kullanın.


METAR-TAF: